sensor_id;sensor_type;location;lat;lon;timestamp;P1;durP1;ratioP1;P2;durP2;ratioP2
36585;SDS011;22591;48.314;11.562;2023-05-10T00:00:07;3.55;;;2.88;;
36585;SDS011;22591;48.314;11.562;2023-05-10T00:02:34;2.78;;;2.58;;
36585;SDS011;22591;48.314;11.562;2023-05-10T00:04:59;2.97;;;2.78;;
36585;SDS011;22591;48.314;11.562;2023-05-10T00:07:25;3.20;;;3.00;;
36585;SDS011;22591;48.314;11.562;2023-05-10T00:09:51;3.10;;;2.70;;
36585;SDS011;22591;48.314;11.562;2023-05-10T00:12:16;5.35;;;2.80;;
36585;SDS011;22591;48.314;11.562;2023-05-10T00:14:42;5.20;;;3.40;;
36585;SDS011;22591;48.314;11.562;2023-05-10T00:17:07;4.05;;;3.65;;
36585;SDS011;22591;48.314;11.562;2023-05-10T00:19:33;3.83;;;3.60;;
36585;SDS011;22591;48.314;11.562;2023-05-10T00:21:58;4.35;;;4.05;;
36585;SDS011;22591;48.314;11.562;2023-05-10T00:24:24;5.47;;;3.92;;
36585;SDS011;22591;48.314;11.562;2023-05-10T00:26:50;4.97;;;3.67;;
36585;SDS011;22591;48.314;11.562;2023-05-10T00:29:15;3.90;;;3.70;;
36585;SDS011;22591;48.314;11.562;2023-05-10T00:31:41;3.45;;;3.25;;
36585;SDS011;22591;48.314;11.562;2023-05-10T00:34:06;3.90;;;3.33;;
36585;SDS011;22591;48.314;11.562;2023-05-10T00:36:32;3.22;;;3.03;;
36585;SDS011;22591;48.314;11.562;2023-05-10T00:38:57;3.83;;;3.35;;
36585;SDS011;22591;48.314;11.562;2023-05-10T00:41:23;3.50;;;3.30;;
36585;SDS011;22591;48.314;11.562;2023-05-10T00:43:48;3.78;;;3.47;;
36585;SDS011;22591;48.314;11.562;2023-05-10T00:46:14;4.28;;;3.40;;
36585;SDS011;22591;48.314;11.562;2023-05-10T00:48:40;3.60;;;3.40;;
36585;SDS011;22591;48.314;11.562;2023-05-10T00:51:06;4.13;;;3.30;;
36585;SDS011;22591;48.314;11.562;2023-05-10T00:53:32;3.45;;;3.20;;
36585;SDS011;22591;48.314;11.562;2023-05-10T00:55:59;3.38;;;3.10;;
36585;SDS011;22591;48.314;11.562;2023-05-10T00:58:26;3.28;;;3.08;;
36585;SDS011;22591;48.314;11.562;2023-05-10T01:00:53;4.45;;;3.70;;
36585;SDS011;22591;48.314;11.562;2023-05-10T01:03:21;3.80;;;3.47;;
36585;SDS011;22591;48.314;11.562;2023-05-10T01:05:47;4.00;;;3.20;;
36585;SDS011;22591;48.314;11.562;2023-05-10T01:08:13;3.40;;;3.10;;
36585;SDS011;22591;48.314;11.562;2023-05-10T01:10:38;2.58;;;2.45;;
36585;SDS011;22591;48.314;11.562;2023-05-10T01:13:04;2.70;;;2.45;;
36585;SDS011;22591;48.314;11.562;2023-05-10T01:15:30;2.65;;;2.55;;
36585;SDS011;22591;48.314;11.562;2023-05-10T01:17:56;2.50;;;2.40;;
36585;SDS011;22591;48.314;11.562;2023-05-10T01:20:21;2.80;;;2.65;;
36585;SDS011;22591;48.314;11.562;2023-05-10T01:25:47;2.58;;;2.45;;
36585;SDS011;22591;48.314;11.562;2023-05-10T01:37:21;2.75;;;2.10;;
36585;SDS011;22591;48.314;11.562;2023-05-10T01:39:55;2.50;;;2.30;;
36585;SDS011;22591;48.314;11.562;2023-05-10T01:42:29;2.08;;;1.98;;
36585;SDS011;22591;48.314;11.562;2023-05-10T01:45:14;2.13;;;2.03;;
36585;SDS011;22591;48.314;11.562;2023-05-10T01:50:36;2.17;;;1.75;;
36585;SDS011;22591;48.314;11.562;2023-05-10T01:53:06;2.05;;;1.95;;
36585;SDS011;22591;48.314;11.562;2023-05-10T01:55:35;1.70;;;1.63;;
36585;SDS011;22591;48.314;11.562;2023-05-10T01:58:12;1.90;;;1.80;;
36585;SDS011;22591;48.314;11.562;2023-05-10T02:00:42;1.70;;;1.60;;
36585;SDS011;22591;48.314;11.562;2023-05-10T02:03:09;2.50;;;1.60;;
36585;SDS011;22591;48.314;11.562;2023-05-10T02:05:36;1.90;;;1.80;;
36585;SDS011;22591;48.314;11.562;2023-05-10T02:08:05;2.65;;;1.70;;
36585;SDS011;22591;48.314;11.562;2023-05-10T02:10:32;1.65;;;1.30;;
36585;SDS011;22591;48.314;11.562;2023-05-10T02:12:59;1.42;;;1.42;;
36585;SDS011;22591;48.314;11.562;2023-05-10T02:15:27;1.20;;;1.20;;
36585;SDS011;22591;48.314;11.562;2023-05-10T02:17:54;1.27;;;1.27;;
36585;SDS011;22591;48.314;11.562;2023-05-10T02:20:21;1.15;;;1.15;;
36585;SDS011;22591;48.314;11.562;2023-05-10T02:22:49;1.30;;;1.20;;
36585;SDS011;22591;48.314;11.562;2023-05-10T02:25:16;1.50;;;1.40;;
36585;SDS011;22591;48.314;11.562;2023-05-10T02:27:44;1.42;;;1.40;;
36585;SDS011;22591;48.314;11.562;2023-05-10T02:30:11;1.20;;;1.20;;
36585;SDS011;22591;48.314;11.562;2023-05-10T02:32:38;1.13;;;1.13;;
36585;SDS011;22591;48.314;11.562;2023-05-10T02:35:04;1.30;;;1.30;;
36585;SDS011;22591;48.314;11.562;2023-05-10T02:37:31;1.30;;;1.20;;
36585;SDS011;22591;48.314;11.562;2023-05-10T02:39:58;1.58;;;1.40;;
36585;SDS011;22591;48.314;11.562;2023-05-10T02:42:27;1.10;;;1.05;;
36585;SDS011;22591;48.314;11.562;2023-05-10T02:44:55;1.02;;;1.02;;
36585;SDS011;22591;48.314;11.562;2023-05-10T02:47:25;1.25;;;1.15;;
36585;SDS011;22591;48.314;11.562;2023-05-10T02:49:51;1.40;;;1.30;;
36585;SDS011;22591;48.314;11.562;2023-05-10T02:52:19;0.80;;;0.80;;
36585;SDS011;22591;48.314;11.562;2023-05-10T02:54:49;1.42;;;1.33;;
36585;SDS011;22591;48.314;11.562;2023-05-10T02:57:17;1.50;;;1.40;;
36585;SDS011;22591;48.314;11.562;2023-05-10T02:59:52;1.10;;;1.00;;
36585;SDS011;22591;48.314;11.562;2023-05-10T03:02:18;1.35;;;1.30;;
36585;SDS011;22591;48.314;11.562;2023-05-10T03:04:43;1.10;;;1.00;;
36585;SDS011;22591;48.314;11.562;2023-05-10T03:07:09;1.50;;;1.50;;
36585;SDS011;22591;48.314;11.562;2023-05-10T03:09:35;1.48;;;1.20;;
36585;SDS011;22591;48.314;11.562;2023-05-10T03:14:57;1.40;;;1.40;;
36585;SDS011;22591;48.314;11.562;2023-05-10T03:20:11;4.05;;;1.20;;
36585;SDS011;22591;48.314;11.562;2023-05-10T03:22:47;1.00;;;1.00;;
36585;SDS011;22591;48.314;11.562;2023-05-10T03:25:15;1.05;;;1.00;;
36585;SDS011;22591;48.314;11.562;2023-05-10T03:27:43;1.67;;;1.58;;
36585;SDS011;22591;48.314;11.562;2023-05-10T03:30:10;2.10;;;1.83;;
36585;SDS011;22591;48.314;11.562;2023-05-10T03:32:36;1.20;;;1.17;;
36585;SDS011;22591;48.314;11.562;2023-05-10T03:35:08;2.03;;;1.20;;
36585;SDS011;22591;48.314;11.562;2023-05-10T03:37:35;1.60;;;1.40;;
36585;SDS011;22591;48.314;11.562;2023-05-10T03:40:01;1.30;;;1.30;;
36585;SDS011;22591;48.314;11.562;2023-05-10T03:42:27;1.98;;;1.77;;
36585;SDS011;22591;48.314;11.562;2023-05-10T03:44:52;2.95;;;1.58;;
36585;SDS011;22591;48.314;11.562;2023-05-10T03:47:18;1.42;;;1.40;;
36585;SDS011;22591;48.314;11.562;2023-05-10T03:49:44;1.50;;;1.42;;
36585;SDS011;22591;48.314;11.562;2023-05-10T03:52:09;1.50;;;1.50;;
36585;SDS011;22591;48.314;11.562;2023-05-10T03:54:34;1.58;;;1.48;;
36585;SDS011;22591;48.314;11.562;2023-05-10T03:57:00;1.42;;;1.42;;
36585;SDS011;22591;48.314;11.562;2023-05-10T03:59:26;1.80;;;1.70;;
36585;SDS011;22591;48.314;11.562;2023-05-10T04:01:51;1.77;;;1.67;;
36585;SDS011;22591;48.314;11.562;2023-05-10T04:04:17;1.63;;;1.52;;
36585;SDS011;22591;48.314;11.562;2023-05-10T04:06:43;1.73;;;1.63;;
36585;SDS011;22591;48.314;11.562;2023-05-10T04:09:09;1.95;;;1.83;;
36585;SDS011;22591;48.314;11.562;2023-05-10T04:11:35;1.60;;;1.50;;
36585;SDS011;22591;48.314;11.562;2023-05-10T04:14:01;2.53;;;1.65;;
36585;SDS011;22591;48.314;11.562;2023-05-10T04:16:27;1.67;;;1.63;;
36585;SDS011;22591;48.314;11.562;2023-05-10T04:18:52;1.50;;;1.50;;
36585;SDS011;22591;48.314;11.562;2023-05-10T04:21:18;1.83;;;1.75;;
36585;SDS011;22591;48.314;11.562;2023-05-10T04:23:43;1.83;;;1.70;;
36585;SDS011;22591;48.314;11.562;2023-05-10T04:26:09;3.90;;;1.42;;
36585;SDS011;22591;48.314;11.562;2023-05-10T04:28:35;1.40;;;1.40;;
36585;SDS011;22591;48.314;11.562;2023-05-10T04:31:07;1.88;;;1.77;;
36585;SDS011;22591;48.314;11.562;2023-05-10T04:33:33;1.50;;;1.40;;
36585;SDS011;22591;48.314;11.562;2023-05-10T04:35:59;1.40;;;1.40;;
36585;SDS011;22591;48.314;11.562;2023-05-10T04:38:25;1.40;;;1.40;;
36585;SDS011;22591;48.314;11.562;2023-05-10T04:40:51;1.50;;;1.48;;
36585;SDS011;22591;48.314;11.562;2023-05-10T04:43:17;2.85;;;1.38;;
36585;SDS011;22591;48.314;11.562;2023-05-10T04:45:43;1.52;;;1.20;;
36585;SDS011;22591;48.314;11.562;2023-05-10T04:48:08;1.10;;;1.10;;
36585;SDS011;22591;48.314;11.562;2023-05-10T04:50:34;4.03;;;1.05;;
36585;SDS011;22591;48.314;11.562;2023-05-10T04:53:00;1.10;;;1.10;;
36585;SDS011;22591;48.314;11.562;2023-05-10T04:55:25;1.20;;;1.20;;
36585;SDS011;22591;48.314;11.562;2023-05-10T04:57:51;1.30;;;1.30;;
36585;SDS011;22591;48.314;11.562;2023-05-10T05:00:17;1.80;;;1.40;;
36585;SDS011;22591;48.314;11.562;2023-05-10T05:02:44;1.00;;;1.00;;
36585;SDS011;22591;48.314;11.562;2023-05-10T05:05:10;0.70;;;0.70;;
36585;SDS011;22591;48.314;11.562;2023-05-10T05:07:36;0.80;;;0.80;;
36585;SDS011;22591;48.314;11.562;2023-05-10T05:10:03;0.70;;;0.70;;
36585;SDS011;22591;48.314;11.562;2023-05-10T05:12:32;1.65;;;0.80;;
36585;SDS011;22591;48.314;11.562;2023-05-10T05:14:57;0.65;;;0.65;;
36585;SDS011;22591;48.314;11.562;2023-05-10T05:17:23;0.52;;;0.52;;
36585;SDS011;22591;48.314;11.562;2023-05-10T05:19:49;0.60;;;0.60;;
36585;SDS011;22591;48.314;11.562;2023-05-10T05:22:14;0.52;;;0.52;;
36585;SDS011;22591;48.314;11.562;2023-05-10T05:24:40;0.60;;;0.60;;
36585;SDS011;22591;48.314;11.562;2023-05-10T05:27:05;0.80;;;0.50;;
36585;SDS011;22591;48.314;11.562;2023-05-10T05:29:31;0.47;;;0.47;;
36585;SDS011;22591;48.314;11.562;2023-05-10T05:31:57;0.50;;;0.50;;
36585;SDS011;22591;48.314;11.562;2023-05-10T05:34:22;0.70;;;0.63;;
36585;SDS011;22591;48.314;11.562;2023-05-10T05:36:49;0.90;;;0.60;;
36585;SDS011;22591;48.314;11.562;2023-05-10T05:39:14;1.08;;;1.08;;
36585;SDS011;22591;48.314;11.562;2023-05-10T05:41:40;0.80;;;0.80;;
36585;SDS011;22591;48.314;11.562;2023-05-10T05:44:06;0.80;;;0.80;;
36585;SDS011;22591;48.314;11.562;2023-05-10T05:46:31;1.25;;;0.90;;
36585;SDS011;22591;48.314;11.562;2023-05-10T05:48:57;1.00;;;1.00;;
36585;SDS011;22591;48.314;11.562;2023-05-10T05:51:22;1.05;;;0.90;;
36585;SDS011;22591;48.314;11.562;2023-05-10T05:53:48;0.88;;;0.88;;
36585;SDS011;22591;48.314;11.562;2023-05-10T05:56:13;2.15;;;0.95;;
36585;SDS011;22591;48.314;11.562;2023-05-10T05:58:39;1.40;;;1.35;;
36585;SDS011;22591;48.314;11.562;2023-05-10T06:01:04;0.90;;;0.90;;
36585;SDS011;22591;48.314;11.562;2023-05-10T06:03:30;2.25;;;1.17;;
36585;SDS011;22591;48.314;11.562;2023-05-10T06:05:56;1.10;;;1.00;;
36585;SDS011;22591;48.314;11.562;2023-05-10T06:08:21;1.00;;;1.00;;
36585;SDS011;22591;48.314;11.562;2023-05-10T06:10:47;0.90;;;0.90;;
36585;SDS011;22591;48.314;11.562;2023-05-10T06:13:13;2.40;;;1.40;;
36585;SDS011;22591;48.314;11.562;2023-05-10T06:15:38;1.35;;;1.02;;
36585;SDS011;22591;48.314;11.562;2023-05-10T06:18:04;1.30;;;1.30;;
36585;SDS011;22591;48.314;11.562;2023-05-10T06:20:30;1.42;;;1.35;;
36585;SDS011;22591;48.314;11.562;2023-05-10T06:22:56;2.10;;;1.30;;
36585;SDS011;22591;48.314;11.562;2023-05-10T06:25:22;1.88;;;1.10;;
36585;SDS011;22591;48.314;11.562;2023-05-10T06:27:48;1.10;;;1.10;;
36585;SDS011;22591;48.314;11.562;2023-05-10T06:30:13;1.15;;;1.05;;
36585;SDS011;22591;48.314;11.562;2023-05-10T06:32:40;1.08;;;1.08;;
36585;SDS011;22591;48.314;11.562;2023-05-10T06:35:06;1.33;;;1.20;;
36585;SDS011;22591;48.314;11.562;2023-05-10T06:37:32;1.40;;;1.30;;
36585;SDS011;22591;48.314;11.562;2023-05-10T06:39:59;1.27;;;1.25;;
36585;SDS011;22591;48.314;11.562;2023-05-10T06:42:25;1.38;;;1.27;;
36585;SDS011;22591;48.314;11.562;2023-05-10T06:44:51;1.38;;;1.38;;
36585;SDS011;22591;48.314;11.562;2023-05-10T06:47:17;1.85;;;1.25;;
36585;SDS011;22591;48.314;11.562;2023-05-10T06:49:43;1.17;;;1.17;;
36585;SDS011;22591;48.314;11.562;2023-05-10T06:52:08;1.23;;;1.23;;
36585;SDS011;22591;48.314;11.562;2023-05-10T06:54:34;1.60;;;1.50;;
36585;SDS011;22591;48.314;11.562;2023-05-10T06:56:59;1.27;;;1.20;;
36585;SDS011;22591;48.314;11.562;2023-05-10T06:59:25;1.48;;;1.38;;
36585;SDS011;22591;48.314;11.562;2023-05-10T07:01:50;1.55;;;1.45;;
36585;SDS011;22591;48.314;11.562;2023-05-10T07:04:16;2.67;;;1.40;;
36585;SDS011;22591;48.314;11.562;2023-05-10T07:06:42;1.92;;;1.50;;
36585;SDS011;22591;48.314;11.562;2023-05-10T07:09:08;1.50;;;1.50;;
36585;SDS011;22591;48.314;11.562;2023-05-10T07:11:34;1.45;;;1.35;;
36585;SDS011;22591;48.314;11.562;2023-05-10T07:14:00;1.58;;;1.48;;
36585;SDS011;22591;48.314;11.562;2023-05-10T07:16:25;1.45;;;1.40;;
36585;SDS011;22591;48.314;11.562;2023-05-10T07:18:51;1.00;;;1.00;;
36585;SDS011;22591;48.314;11.562;2023-05-10T07:21:18;1.48;;;1.40;;
36585;SDS011;22591;48.314;11.562;2023-05-10T07:23:43;2.92;;;1.33;;
36585;SDS011;22591;48.314;11.562;2023-05-10T07:26:09;1.42;;;1.35;;
36585;SDS011;22591;48.314;11.562;2023-05-10T07:28:36;1.80;;;1.60;;
36585;SDS011;22591;48.314;11.562;2023-05-10T07:31:02;1.17;;;1.17;;
36585;SDS011;22591;48.314;11.562;2023-05-10T07:33:28;2.15;;;1.00;;
36585;SDS011;22591;48.314;11.562;2023-05-10T07:35:53;0.98;;;0.98;;
36585;SDS011;22591;48.314;11.562;2023-05-10T07:38:19;0.98;;;0.98;;
36585;SDS011;22591;48.314;11.562;2023-05-10T07:40:44;2.53;;;1.38;;
36585;SDS011;22591;48.314;11.562;2023-05-10T07:43:10;4.32;;;1.20;;
36585;SDS011;22591;48.314;11.562;2023-05-10T07:45:35;0.90;;;0.90;;
36585;SDS011;22591;48.314;11.562;2023-05-10T07:48:01;3.42;;;1.30;;
36585;SDS011;22591;48.314;11.562;2023-05-10T07:50:27;1.15;;;1.15;;
36585;SDS011;22591;48.314;11.562;2023-05-10T07:52:52;1.33;;;1.20;;
36585;SDS011;22591;48.314;11.562;2023-05-10T07:55:18;2.30;;;1.38;;
36585;SDS011;22591;48.314;11.562;2023-05-10T07:57:44;1.17;;;1.17;;
36585;SDS011;22591;48.314;11.562;2023-05-10T08:00:12;1.08;;;1.08;;
36585;SDS011;22591;48.314;11.562;2023-05-10T08:02:41;1.63;;;1.52;;
36585;SDS011;22591;48.314;11.562;2023-05-10T08:05:07;1.13;;;1.10;;
36585;SDS011;22591;48.314;11.562;2023-05-10T08:07:32;1.70;;;1.60;;
36585;SDS011;22591;48.314;11.562;2023-05-10T08:09:58;4.60;;;1.42;;
36585;SDS011;22591;48.314;11.562;2023-05-10T08:12:24;1.38;;;1.20;;
36585;SDS011;22591;48.314;11.562;2023-05-10T08:14:49;1.40;;;1.30;;
36585;SDS011;22591;48.314;11.562;2023-05-10T08:17:15;1.10;;;1.00;;
36585;SDS011;22591;48.314;11.562;2023-05-10T08:19:40;0.95;;;0.95;;
36585;SDS011;22591;48.314;11.562;2023-05-10T08:22:06;0.82;;;0.82;;
36585;SDS011;22591;48.314;11.562;2023-05-10T08:24:32;1.15;;;1.05;;
36585;SDS011;22591;48.314;11.562;2023-05-10T08:26:59;0.82;;;0.82;;
36585;SDS011;22591;48.314;11.562;2023-05-10T08:29:25;1.10;;;1.10;;
36585;SDS011;22591;48.314;11.562;2023-05-10T08:31:51;1.50;;;1.10;;
36585;SDS011;22591;48.314;11.562;2023-05-10T08:34:16;1.05;;;1.05;;
36585;SDS011;22591;48.314;11.562;2023-05-10T08:36:42;2.38;;;1.20;;
36585;SDS011;22591;48.314;11.562;2023-05-10T08:39:07;1.38;;;1.00;;
36585;SDS011;22591;48.314;11.562;2023-05-10T08:41:33;3.80;;;1.20;;
36585;SDS011;22591;48.314;11.562;2023-05-10T08:44:02;1.50;;;1.40;;
36585;SDS011;22591;48.314;11.562;2023-05-10T08:46:30;1.90;;;1.30;;
36585;SDS011;22591;48.314;11.562;2023-05-10T08:48:58;1.08;;;1.00;;
36585;SDS011;22591;48.314;11.562;2023-05-10T08:51:26;0.90;;;0.90;;
36585;SDS011;22591;48.314;11.562;2023-05-10T08:53:54;2.30;;;1.13;;
36585;SDS011;22591;48.314;11.562;2023-05-10T08:56:20;1.83;;;0.90;;
36585;SDS011;22591;48.314;11.562;2023-05-10T08:58:45;1.20;;;1.20;;
36585;SDS011;22591;48.314;11.562;2023-05-10T09:01:12;1.10;;;1.10;;
36585;SDS011;22591;48.314;11.562;2023-05-10T09:03:40;0.95;;;0.95;;
36585;SDS011;22591;48.314;11.562;2023-05-10T09:06:05;1.77;;;1.10;;
36585;SDS011;22591;48.314;11.562;2023-05-10T09:08:31;2.20;;;1.80;;
36585;SDS011;22591;48.314;11.562;2023-05-10T09:10:57;1.58;;;1.48;;
36585;SDS011;22591;48.314;11.562;2023-05-10T09:13:23;2.35;;;1.20;;
36585;SDS011;22591;48.314;11.562;2023-05-10T09:15:49;1.30;;;1.20;;
36585;SDS011;22591;48.314;11.562;2023-05-10T09:18:16;1.65;;;1.13;;
36585;SDS011;22591;48.314;11.562;2023-05-10T09:20:41;1.83;;;1.10;;
36585;SDS011;22591;48.314;11.562;2023-05-10T09:23:07;1.15;;;1.00;;
36585;SDS011;22591;48.314;11.562;2023-05-10T09:25:33;1.38;;;1.10;;
36585;SDS011;22591;48.314;11.562;2023-05-10T09:27:58;1.17;;;1.08;;
36585;SDS011;22591;48.314;11.562;2023-05-10T09:30:28;1.83;;;0.90;;
36585;SDS011;22591;48.314;11.562;2023-05-10T09:32:55;1.85;;;1.10;;
36585;SDS011;22591;48.314;11.562;2023-05-10T09:35:26;0.90;;;0.90;;
36585;SDS011;22591;48.314;11.562;2023-05-10T09:37:57;1.05;;;1.05;;
36585;SDS011;22591;48.314;11.562;2023-05-10T09:40:25;1.20;;;1.20;;
36585;SDS011;22591;48.314;11.562;2023-05-10T09:45:21;1.95;;;1.23;;
36585;SDS011;22591;48.314;11.562;2023-05-10T09:47:47;1.15;;;1.15;;
36585;SDS011;22591;48.314;11.562;2023-05-10T09:50:13;2.55;;;1.35;;
36585;SDS011;22591;48.314;11.562;2023-05-10T09:55:19;73.38;;;7.25;;
36585;SDS011;22591;48.314;11.562;2023-05-10T09:57:46;3.58;;;2.67;;
36585;SDS011;22591;48.314;11.562;2023-05-10T10:00:16;5.75;;;3.17;;
36585;SDS011;22591;48.314;11.562;2023-05-10T10:02:43;2.20;;;2.10;;
36585;SDS011;22591;48.314;11.562;2023-05-10T10:05:18;4.93;;;2.17;;
36585;SDS011;22591;48.314;11.562;2023-05-10T10:07:44;2.65;;;2.47;;
36585;SDS011;22591;48.314;11.562;2023-05-10T10:10:10;3.25;;;3.05;;
36585;SDS011;22591;48.314;11.562;2023-05-10T10:12:37;2.08;;;1.98;;
36585;SDS011;22591;48.314;11.562;2023-05-10T10:15:04;2.67;;;2.47;;
36585;SDS011;22591;48.314;11.562;2023-05-10T10:17:31;1.98;;;1.88;;
36585;SDS011;22591;48.314;11.562;2023-05-10T10:19:58;2.35;;;2.15;;
36585;SDS011;22591;48.314;11.562;2023-05-10T10:22:24;1.73;;;1.63;;
36585;SDS011;22591;48.314;11.562;2023-05-10T10:24:50;2.50;;;1.70;;
36585;SDS011;22591;48.314;11.562;2023-05-10T10:27:31;1.42;;;1.30;;
36585;SDS011;22591;48.314;11.562;2023-05-10T10:36:01;3.58;;;3.38;;
36585;SDS011;22591;48.314;11.562;2023-05-10T10:41:31;2.63;;;2.53;;
36585;SDS011;22591;48.314;11.562;2023-05-10T10:44:58;2.78;;;2.58;;
36585;SDS011;22591;48.314;11.562;2023-05-10T10:49:38;2.28;;;2.08;;
36585;SDS011;22591;48.314;11.562;2023-05-10T10:57:23;2.15;;;2.05;;
36585;SDS011;22591;48.314;11.562;2023-05-10T10:59:51;4.60;;;2.75;;
36585;SDS011;22591;48.314;11.562;2023-05-10T11:07:58;3.00;;;2.90;;
36585;SDS011;22591;48.314;11.562;2023-05-10T11:10:25;2.70;;;2.50;;
36585;SDS011;22591;48.314;11.562;2023-05-10T11:15:36;3.22;;;2.72;;
36585;SDS011;22591;48.314;11.562;2023-05-10T11:18:16;3.35;;;3.00;;
36585;SDS011;22591;48.314;11.562;2023-05-10T11:26:08;1.83;;;1.50;;
36585;SDS011;22591;48.314;11.562;2023-05-10T11:28:41;1.05;;;0.90;;
36585;SDS011;22591;48.314;11.562;2023-05-10T11:31:14;0.98;;;0.95;;
36585;SDS011;22591;48.314;11.562;2023-05-10T11:33:50;1.15;;;0.90;;
36585;SDS011;22591;48.314;11.562;2023-05-10T11:36:18;1.42;;;1.00;;
36585;SDS011;22591;48.314;11.562;2023-05-10T11:38:46;3.97;;;1.27;;
36585;SDS011;22591;48.314;11.562;2023-05-10T11:41:12;1.20;;;1.10;;
36585;SDS011;22591;48.314;11.562;2023-05-10T11:43:38;2.33;;;1.10;;
36585;SDS011;22591;48.314;11.562;2023-05-10T11:46:05;1.08;;;1.08;;
36585;SDS011;22591;48.314;11.562;2023-05-10T11:48:31;2.25;;;1.00;;
36585;SDS011;22591;48.314;11.562;2023-05-10T11:50:58;2.67;;;1.30;;
36585;SDS011;22591;48.314;11.562;2023-05-10T11:53:25;1.40;;;1.30;;
36585;SDS011;22591;48.314;11.562;2023-05-10T11:55:52;1.52;;;1.42;;
36585;SDS011;22591;48.314;11.562;2023-05-10T11:58:18;1.23;;;1.20;;
36585;SDS011;22591;48.314;11.562;2023-05-10T12:00:43;1.92;;;1.58;;
36585;SDS011;22591;48.314;11.562;2023-05-10T12:03:10;1.73;;;1.63;;
36585;SDS011;22591;48.314;11.562;2023-05-10T12:05:36;1.52;;;1.42;;
36585;SDS011;22591;48.314;11.562;2023-05-10T12:08:12;1.50;;;1.40;;
36585;SDS011;22591;48.314;11.562;2023-05-10T12:10:38;1.10;;;0.98;;
36585;SDS011;22591;48.314;11.562;2023-05-10T12:13:04;1.30;;;1.20;;
36585;SDS011;22591;48.314;11.562;2023-05-10T12:15:29;2.35;;;1.70;;
36585;SDS011;22591;48.314;11.562;2023-05-10T12:17:55;1.98;;;1.63;;
36585;SDS011;22591;48.314;11.562;2023-05-10T12:20:23;4.30;;;1.60;;
36585;SDS011;22591;48.314;11.562;2023-05-10T12:22:50;0.90;;;0.90;;
36585;SDS011;22591;48.314;11.562;2023-05-10T12:25:20;0.90;;;0.90;;
36585;SDS011;22591;48.314;11.562;2023-05-10T12:27:47;1.95;;;1.10;;
36585;SDS011;22591;48.314;11.562;2023-05-10T12:30:18;1.10;;;1.05;;
36585;SDS011;22591;48.314;11.562;2023-05-10T12:32:45;1.10;;;1.00;;
36585;SDS011;22591;48.314;11.562;2023-05-10T12:35:11;1.40;;;0.90;;
36585;SDS011;22591;48.314;11.562;2023-05-10T12:37:36;1.23;;;0.82;;
36585;SDS011;22591;48.314;11.562;2023-05-10T12:40:07;1.15;;;1.13;;
36585;SDS011;22591;48.314;11.562;2023-05-10T12:42:34;1.33;;;1.33;;
36585;SDS011;22591;48.314;11.562;2023-05-10T12:45:04;2.85;;;1.90;;
36585;SDS011;22591;48.314;11.562;2023-05-10T12:47:30;2.67;;;1.58;;
36585;SDS011;22591;48.314;11.562;2023-05-10T12:49:56;1.98;;;1.10;;
36585;SDS011;22591;48.314;11.562;2023-05-10T12:52:22;3.08;;;1.15;;
36585;SDS011;22591;48.314;11.562;2023-05-10T12:54:48;1.80;;;1.70;;
36585;SDS011;22591;48.314;11.562;2023-05-10T12:57:14;1.55;;;1.45;;
36585;SDS011;22591;48.314;11.562;2023-05-10T12:59:39;1.98;;;1.88;;
36585;SDS011;22591;48.314;11.562;2023-05-10T13:02:05;4.25;;;1.65;;
36585;SDS011;22591;48.314;11.562;2023-05-10T13:04:31;3.13;;;1.80;;
36585;SDS011;22591;48.314;11.562;2023-05-10T13:06:58;1.90;;;1.80;;
36585;SDS011;22591;48.314;11.562;2023-05-10T13:09:26;2.63;;;1.70;;
36585;SDS011;22591;48.314;11.562;2023-05-10T13:11:54;5.40;;;1.52;;
36585;SDS011;22591;48.314;11.562;2023-05-10T13:14:20;1.55;;;1.08;;
36585;SDS011;22591;48.314;11.562;2023-05-10T13:16:46;3.40;;;1.58;;
36585;SDS011;22591;48.314;11.562;2023-05-10T13:19:15;1.08;;;1.00;;
36585;SDS011;22591;48.314;11.562;2023-05-10T13:21:41;1.05;;;1.05;;
36585;SDS011;22591;48.314;11.562;2023-05-10T13:24:07;1.27;;;1.00;;
36585;SDS011;22591;48.314;11.562;2023-05-10T13:26:33;2.15;;;1.27;;
36585;SDS011;22591;48.314;11.562;2023-05-10T13:28:58;1.13;;;0.90;;
36585;SDS011;22591;48.314;11.562;2023-05-10T13:31:24;1.33;;;1.23;;
36585;SDS011;22591;48.314;11.562;2023-05-10T13:33:50;2.00;;;0.95;;
36585;SDS011;22591;48.314;11.562;2023-05-10T13:36:15;1.42;;;0.85;;
36585;SDS011;22591;48.314;11.562;2023-05-10T13:38:41;2.30;;;1.00;;
36585;SDS011;22591;48.314;11.562;2023-05-10T13:41:06;2.08;;;1.10;;
36585;SDS011;22591;48.314;11.562;2023-05-10T13:43:32;0.80;;;0.80;;
36585;SDS011;22591;48.314;11.562;2023-05-10T13:45:57;1.10;;;0.70;;
36585;SDS011;22591;48.314;11.562;2023-05-10T13:48:23;2.75;;;1.00;;
36585;SDS011;22591;48.314;11.562;2023-05-10T13:50:48;1.08;;;1.00;;
36585;SDS011;22591;48.314;11.562;2023-05-10T13:53:14;2.67;;;0.80;;
36585;SDS011;22591;48.314;11.562;2023-05-10T13:55:40;1.83;;;1.02;;
36585;SDS011;22591;48.314;11.562;2023-05-10T13:58:06;2.05;;;1.10;;
36585;SDS011;22591;48.314;11.562;2023-05-10T14:00:31;1.00;;;1.00;;
36585;SDS011;22591;48.314;11.562;2023-05-10T14:02:57;1.52;;;1.00;;
36585;SDS011;22591;48.314;11.562;2023-05-10T14:05:22;1.60;;;1.00;;
36585;SDS011;22591;48.314;11.562;2023-05-10T14:07:48;0.90;;;0.90;;
36585;SDS011;22591;48.314;11.562;2023-05-10T14:10:15;1.20;;;1.20;;
36585;SDS011;22591;48.314;11.562;2023-05-10T14:12:40;1.35;;;1.30;;
36585;SDS011;22591;48.314;11.562;2023-05-10T14:15:06;2.28;;;1.58;;
36585;SDS011;22591;48.314;11.562;2023-05-10T14:17:32;1.98;;;1.83;;
36585;SDS011;22591;48.314;11.562;2023-05-10T14:19:57;2.78;;;1.50;;
36585;SDS011;22591;48.314;11.562;2023-05-10T14:22:23;1.80;;;1.70;;
36585;SDS011;22591;48.314;11.562;2023-05-10T14:24:49;1.90;;;1.80;;
36585;SDS011;22591;48.314;11.562;2023-05-10T14:27:15;2.30;;;2.20;;
36585;SDS011;22591;48.314;11.562;2023-05-10T14:29:40;1.70;;;1.60;;
36585;SDS011;22591;48.314;11.562;2023-05-10T14:32:07;1.70;;;1.60;;
36585;SDS011;22591;48.314;11.562;2023-05-10T14:34:32;2.33;;;2.13;;
36585;SDS011;22591;48.314;11.562;2023-05-10T14:36:58;4.20;;;2.08;;
36585;SDS011;22591;48.314;11.562;2023-05-10T14:39:23;2.47;;;2.33;;
36585;SDS011;22591;48.314;11.562;2023-05-10T14:41:50;2.33;;;2.17;;
36585;SDS011;22591;48.314;11.562;2023-05-10T14:44:17;2.80;;;2.60;;
36585;SDS011;22591;48.314;11.562;2023-05-10T14:46:42;2.15;;;2.00;;
36585;SDS011;22591;48.314;11.562;2023-05-10T14:49:08;1.85;;;1.75;;
36585;SDS011;22591;48.314;11.562;2023-05-10T14:51:33;2.83;;;1.95;;
36585;SDS011;22591;48.314;11.562;2023-05-10T14:53:59;2.08;;;1.70;;
36585;SDS011;22591;48.314;11.562;2023-05-10T14:56:24;1.90;;;1.80;;
36585;SDS011;22591;48.314;11.562;2023-05-10T14:58:51;2.22;;;2.03;;
36585;SDS011;22591;48.314;11.562;2023-05-10T15:01:16;1.40;;;1.30;;
36585;SDS011;22591;48.314;11.562;2023-05-10T15:03:42;3.03;;;1.27;;
36585;SDS011;22591;48.314;11.562;2023-05-10T15:06:07;1.55;;;1.45;;
36585;SDS011;22591;48.314;11.562;2023-05-10T15:08:33;1.60;;;1.50;;
36585;SDS011;22591;48.314;11.562;2023-05-10T15:10:59;2.45;;;1.45;;
36585;SDS011;22591;48.314;11.562;2023-05-10T15:13:24;1.50;;;1.40;;
36585;SDS011;22591;48.314;11.562;2023-05-10T15:15:50;1.40;;;1.30;;
36585;SDS011;22591;48.314;11.562;2023-05-10T15:18:16;1.50;;;1.40;;
36585;SDS011;22591;48.314;11.562;2023-05-10T15:20:41;3.35;;;1.63;;
36585;SDS011;22591;48.314;11.562;2023-05-10T15:23:07;1.30;;;1.20;;
36585;SDS011;22591;48.314;11.562;2023-05-10T15:25:32;1.52;;;1.40;;